createdAt,value
2019-05-19T00:02:10.887Z,27.73
2019-05-19T00:04:43.424Z,30.83
2019-05-19T00:07:18.998Z,31.43
2019-05-19T00:09:56.009Z,29.13
2019-05-19T00:12:29.351Z,29.47
2019-05-19T00:15:12.632Z,30.20
2019-05-19T00:17:48.742Z,29.23
2019-05-19T00:20:23.339Z,30.97
2019-05-19T00:22:55.387Z,32.20
2019-05-19T00:25:29.838Z,28.07
2019-05-19T00:28:01.159Z,30.63
2019-05-19T00:30:37.372Z,31.03
2019-05-19T00:33:22.979Z,32.50
2019-05-19T00:35:55.393Z,30.83
2019-05-19T00:38:26.910Z,28.13
2019-05-19T00:40:59.758Z,32.10
2019-05-19T00:43:33.023Z,33.23
2019-05-19T00:46:02.850Z,35.93
2019-05-19T00:48:32.710Z,36.97
2019-05-19T00:51:05.388Z,35.27
2019-05-19T00:53:44.024Z,35.10
2019-05-19T00:56:19.591Z,47.23
2019-05-19T00:58:54.970Z,41.10
2019-05-19T01:01:29.203Z,34.67
2019-05-19T01:04:03.658Z,31.07
2019-05-19T01:06:39.055Z,32.43
2019-05-19T01:09:11.934Z,34.63
2019-05-19T01:11:53.471Z,32.87
2019-05-19T01:14:27.266Z,32.63
2019-05-19T01:17:02.511Z,32.40
2019-05-19T01:19:54.944Z,33.53
2019-05-19T01:22:19.884Z,31.13
2019-05-19T01:24:53.259Z,35.63
2019-05-19T01:27:33.220Z,30.80
2019-05-19T01:30:07.990Z,29.90
2019-05-19T01:32:44.226Z,30.17
2019-05-19T01:35:14.058Z,30.77
2019-05-19T01:37:47.748Z,32.03
2019-05-19T01:40:34.680Z,37.77
2019-05-19T01:43:23.104Z,32.67
2019-05-19T01:45:54.991Z,33.50
2019-05-19T01:48:29.726Z,31.90
2019-05-19T01:51:05.042Z,32.73
2019-05-19T01:53:35.210Z,32.83
2019-05-19T01:56:12.766Z,35.53
2019-05-19T01:58:47.052Z,34.47
2019-05-19T02:01:42.956Z,32.43
2019-05-19T02:04:15.286Z,35.63
2019-05-19T02:06:49.182Z,33.57
2019-05-19T02:09:28.523Z,39.37
2019-05-19T02:12:04.522Z,34.07
2019-05-19T02:14:34.481Z,33.23
2019-05-19T02:17:04.336Z,34.30
2019-05-19T02:19:34.222Z,37.00
2019-05-19T02:22:04.059Z,35.47
2019-05-19T02:24:36.778Z,34.40
2019-05-19T02:27:08.472Z,34.23
2019-05-19T02:29:39.699Z,36.60
2019-05-19T02:32:11.625Z,33.57
2019-05-19T02:34:45.787Z,34.13
2019-05-19T02:37:18.944Z,36.40
2019-05-19T02:39:50.171Z,36.00
2019-05-19T02:42:24.253Z,30.83
2019-05-19T02:44:57.094Z,33.03
2019-05-19T02:47:37.022Z,31.67
2019-05-19T02:50:08.365Z,32.50
2019-05-19T02:52:41.911Z,38.07
2019-05-19T02:55:15.059Z,36.63
2019-05-19T02:57:47.839Z,33.83
2019-05-19T03:00:45.407Z,31.77
2019-05-19T03:03:20.251Z,29.57
2019-05-19T03:05:55.031Z,40.63
2019-05-19T03:08:29.736Z,33.90
2019-05-19T03:11:12.446Z,36.23
2019-05-19T03:13:44.319Z,35.37
2019-05-19T03:16:14.190Z,36.90
2019-05-19T03:18:54.128Z,35.40
2019-05-19T03:21:27.019Z,36.27
2019-05-19T03:23:56.803Z,34.50
2019-05-19T03:26:28.099Z,37.83
2019-05-19T03:29:00.440Z,35.93
2019-05-19T03:31:42.728Z,33.67
2019-05-19T03:34:20.081Z,35.43
2019-05-19T03:36:53.153Z,33.73
2019-05-19T03:39:37.266Z,35.47
2019-05-19T03:42:18.769Z,36.83
2019-05-19T03:44:51.651Z,32.97
2019-05-19T03:47:27.082Z,35.37
2019-05-19T03:50:10.914Z,34.03
2019-05-19T03:52:50.427Z,33.50
2019-05-19T03:55:22.637Z,32.97
2019-05-19T03:58:02.704Z,34.00
2019-05-19T04:00:33.639Z,36.03
2019-05-19T04:03:04.426Z,29.63
2019-05-19T04:05:40.969Z,33.70
2019-05-19T04:08:12.547Z,32.97
2019-05-19T04:10:43.884Z,35.27
2019-05-19T04:13:20.058Z,33.50
2019-05-19T04:15:58.549Z,33.73
2019-05-19T04:18:25.263Z,34.00
2019-05-19T04:21:10.503Z,34.47
2019-05-19T04:23:47.830Z,32.80
2019-05-19T04:26:20.764Z,31.80
2019-05-19T04:29:01.128Z,37.27
2019-05-19T04:31:36.604Z,31.90
2019-05-19T04:34:15.562Z,34.23
2019-05-19T04:36:52.381Z,35.03
2019-05-19T04:39:28.429Z,30.93
2019-05-19T04:42:18.311Z,33.07
2019-05-19T04:45:02.176Z,31.87
2019-05-19T04:47:40.887Z,33.20
2019-05-19T04:50:13.683Z,34.57
2019-05-19T04:52:47.039Z,32.30
2019-05-19T04:55:26.106Z,34.67
2019-05-19T04:58:00.566Z,30.97
2019-05-19T05:00:41.313Z,32.33
2019-05-19T05:03:25.150Z,29.80
2019-05-19T05:05:59.154Z,32.20
2019-05-19T05:08:31.452Z,34.73
2019-05-19T05:11:05.655Z,32.80
2019-05-19T05:13:48.259Z,33.60
2019-05-19T05:16:20.910Z,34.43
2019-05-19T05:18:50.778Z,31.83
2019-05-19T05:21:29.332Z,31.73
2019-05-19T05:24:05.599Z,31.93
2019-05-19T05:26:48.914Z,33.65
2019-05-19T05:29:36.390Z,35.58
2019-05-19T05:32:06.571Z,30.10
2019-05-19T05:34:43.053Z,33.00
2019-05-19T05:37:21.498Z,34.07
2019-05-19T05:39:56.325Z,33.33
2019-05-19T05:42:32.267Z,32.85
2019-05-19T05:45:06.093Z,31.93
2019-05-19T05:47:40.054Z,37.73
2019-05-19T05:50:11.026Z,36.27
2019-05-19T05:52:44.206Z,32.08
2019-05-19T05:55:14.361Z,32.95
2019-05-19T05:57:47.356Z,33.53
2019-05-19T06:00:21.007Z,35.17
2019-05-19T06:02:52.378Z,33.55
2019-05-19T06:05:25.788Z,32.55
2019-05-19T06:07:57.635Z,31.42
2019-05-19T06:10:30.189Z,32.90
2019-05-19T06:13:01.262Z,34.25
2019-05-19T06:15:37.674Z,32.25
2019-05-19T06:18:07.451Z,34.33
2019-05-19T06:20:44.751Z,33.65
2019-05-19T06:23:20.955Z,35.40
2019-05-19T06:25:52.721Z,35.75
2019-05-19T06:28:28.998Z,29.82
2019-05-19T06:31:00.502Z,33.93
2019-05-19T06:33:30.286Z,33.80
2019-05-19T06:36:00.197Z,33.15
2019-05-19T06:38:30.029Z,31.82
2019-05-19T06:40:59.800Z,32.93
2019-05-19T06:43:29.590Z,37.10
2019-05-19T06:45:59.735Z,32.42
2019-05-19T06:48:29.626Z,29.37
2019-05-19T06:51:00.516Z,33.58
2019-05-19T06:53:31.393Z,31.37
2019-05-19T06:56:01.096Z,30.05
2019-05-19T06:58:31.771Z,29.67
2019-05-19T07:01:02.634Z,27.77
2019-05-19T07:03:32.507Z,29.23
2019-05-19T07:06:02.337Z,28.12
2019-05-19T07:08:33.676Z,29.45
2019-05-19T07:11:03.511Z,29.23
2019-05-19T07:13:33.323Z,26.23
2019-05-19T07:16:03.070Z,25.17
2019-05-19T07:18:32.805Z,25.32
2019-05-19T07:21:04.904Z,22.15
2019-05-19T07:23:34.790Z,19.17
2019-05-19T07:26:04.569Z,18.52
2019-05-19T07:28:37.752Z,17.55
2019-05-19T07:31:11.641Z,21.05
2019-05-19T07:33:41.947Z,19.00
2019-05-19T07:36:12.849Z,18.65
2019-05-19T07:38:42.770Z,16.50
2019-05-19T07:41:15.351Z,16.52
2019-05-19T07:43:45.138Z,16.15
2019-05-19T07:46:14.836Z,16.32
2019-05-19T07:48:45.263Z,19.32
2019-05-19T07:51:15.129Z,16.17
2019-05-19T07:53:44.897Z,15.58
2019-05-19T07:56:14.630Z,15.50
2019-05-19T07:58:46.598Z,14.10
2019-05-19T08:01:16.444Z,15.10
2019-05-19T08:03:46.263Z,16.55
2019-05-19T08:06:16.118Z,16.48
2019-05-19T08:08:45.822Z,13.15
2019-05-19T08:11:16.466Z,13.13
2019-05-19T08:13:46.306Z,15.30
2019-05-19T08:16:16.065Z,14.20
2019-05-19T08:18:47.031Z,13.88
2019-05-19T08:21:16.810Z,15.40
2019-05-19T08:23:59.949Z,14.05
2019-05-19T08:26:17.966Z,16.00
2019-05-19T08:28:47.773Z,14.45
2019-05-19T08:31:17.546Z,15.58
2019-05-19T08:33:47.329Z,14.23
2019-05-19T08:36:17.026Z,15.80
2019-05-19T08:38:46.822Z,15.80
2019-05-19T08:41:16.571Z,15.32
2019-05-19T08:43:46.303Z,15.65
2019-05-19T08:46:16.035Z,16.70
2019-05-19T08:48:45.853Z,15.30
2019-05-19T08:51:15.643Z,15.10
2019-05-19T08:53:45.425Z,16.05
2019-05-19T08:56:15.211Z,16.00
2019-05-19T08:58:45.083Z,17.40
2019-05-19T09:01:15.520Z,16.27
2019-05-19T09:03:45.339Z,16.12
2019-05-19T09:06:15.060Z,17.32
2019-05-19T09:08:44.812Z,17.07
2019-05-19T09:11:14.602Z,16.05
2019-05-19T09:13:46.560Z,15.25
2019-05-19T09:16:16.614Z,15.23
2019-05-19T09:18:46.312Z,14.53
2019-05-19T09:21:16.161Z,14.85
2019-05-19T09:23:45.944Z,14.95
2019-05-19T09:26:15.749Z,17.07
2019-05-19T09:28:45.558Z,16.30
2019-05-19T09:31:15.317Z,16.62
2019-05-19T09:33:45.382Z,17.95
2019-05-19T09:36:15.223Z,17.02
2019-05-19T09:38:45.099Z,17.07
2019-05-19T09:41:14.863Z,17.12
2019-05-19T09:43:44.659Z,16.50
2019-05-19T09:46:14.479Z,17.77
2019-05-19T09:48:44.213Z,17.92
2019-05-19T09:51:13.999Z,15.75
2019-05-19T09:53:43.833Z,17.92
2019-05-19T09:56:15.191Z,17.62
2019-05-19T09:58:45.057Z,18.85
2019-05-19T10:01:15.009Z,18.95
2019-05-19T10:03:44.827Z,17.87
2019-05-19T10:06:14.687Z,18.17
2019-05-19T10:08:57.564Z,19.50
2019-05-19T10:12:10.504Z,18.65
2019-05-19T10:14:50.839Z,18.77
2019-05-19T10:17:37.080Z,19.20
2019-05-19T10:20:08.454Z,20.70
2019-05-19T10:22:38.404Z,19.98
2019-05-19T10:25:21.541Z,18.92
2019-05-19T10:27:41.109Z,18.80
2019-05-19T10:30:12.245Z,19.62
2019-05-19T10:32:42.053Z,20.17
2019-05-19T10:35:12.106Z,18.95
2019-05-19T10:37:41.818Z,17.82
2019-05-19T10:40:11.819Z,19.00
2019-05-19T10:42:41.686Z,19.42
2019-05-19T10:45:12.042Z,18.23
2019-05-19T10:47:41.882Z,17.35
2019-05-19T10:50:11.734Z,18.65
2019-05-19T10:52:41.475Z,17.98
2019-05-19T10:55:11.654Z,23.65
2019-05-19T10:57:41.296Z,18.15
2019-05-19T11:00:11.447Z,17.52
2019-05-19T11:02:41.215Z,18.42
2019-05-19T11:05:11.545Z,15.72
2019-05-19T11:07:43.054Z,19.37
2019-05-19T11:10:12.962Z,15.72
2019-05-19T11:12:42.814Z,15.40
2019-05-19T11:15:13.022Z,17.12
2019-05-19T11:17:42.811Z,18.77
2019-05-19T11:20:12.737Z,15.78
2019-05-19T11:22:42.562Z,15.43
2019-05-19T11:25:12.810Z,14.95
2019-05-19T11:27:44.350Z,14.53
2019-05-19T11:30:15.179Z,17.35
2019-05-19T11:32:48.499Z,15.10
2019-05-19T11:35:20.938Z,14.95
2019-05-19T11:37:53.879Z,14.83
2019-05-19T11:40:31.170Z,14.50
2019-05-19T11:43:04.578Z,13.35
2019-05-19T11:45:37.189Z,13.80
2019-05-19T11:48:14.378Z,13.72
2019-05-19T11:50:44.257Z,13.70
2019-05-19T11:53:14.018Z,12.45
2019-05-19T11:55:46.270Z,13.53
2019-05-19T11:58:16.042Z,11.73
2019-05-19T12:00:45.834Z,10.20
2019-05-19T12:03:15.482Z,11.43
2019-05-19T12:05:45.186Z,11.10
2019-05-19T12:08:14.868Z,11.50
2019-05-19T12:10:44.608Z,10.35
2019-05-19T12:13:14.285Z,10.48
2019-05-19T12:15:44.082Z,10.03
2019-05-19T12:18:13.914Z,10.15
2019-05-19T12:20:44.056Z,10.32
2019-05-19T12:23:13.840Z,10.32
2019-05-19T12:25:43.662Z,10.28
2019-05-19T12:28:13.400Z,10.40
2019-05-19T12:30:43.238Z,10.08
2019-05-19T12:33:12.987Z,11.35
2019-05-19T12:35:42.761Z,10.32
2019-05-19T12:38:12.582Z,10.82
2019-05-19T12:40:42.680Z,10.50
2019-05-19T12:43:12.472Z,9.50
2019-05-19T12:45:42.432Z,9.73
2019-05-19T12:48:12.246Z,9.33
2019-05-19T12:50:42.145Z,9.93
2019-05-19T12:53:11.906Z,9.38
2019-05-19T12:55:44.255Z,9.58
2019-05-19T12:58:15.147Z,9.73
2019-05-19T13:00:44.949Z,10.00
2019-05-19T13:03:14.652Z,13.05
2019-05-19T13:05:44.500Z,11.70
2019-05-19T13:08:14.333Z,11.83
2019-05-19T13:10:43.995Z,11.88
2019-05-19T13:13:13.747Z,11.25
2019-05-19T13:15:43.555Z,10.78
2019-05-19T13:18:13.471Z,10.40
2019-05-19T13:20:43.274Z,10.95
2019-05-19T13:23:13.120Z,9.55
2019-05-19T13:25:42.908Z,10.15
2019-05-19T13:28:12.655Z,10.30
2019-05-19T13:30:43.663Z,10.30
2019-05-19T13:33:13.763Z,10.43
2019-05-19T13:35:45.524Z,8.85
2019-05-19T13:38:15.346Z,9.20
2019-05-19T13:40:45.220Z,10.03
2019-05-19T13:43:14.992Z,9.50
2019-05-19T13:45:44.830Z,9.55
2019-05-19T13:48:14.611Z,10.82
2019-05-19T13:50:44.430Z,10.60
2019-05-19T13:53:14.504Z,9.53
2019-05-19T13:55:44.297Z,11.30
2019-05-19T13:58:14.090Z,10.55
2019-05-19T14:00:43.912Z,9.68
2019-05-19T14:03:13.784Z,10.18
2019-05-19T14:05:43.603Z,10.55
2019-05-19T14:08:13.510Z,11.68
2019-05-19T14:10:43.252Z,10.93
2019-05-19T14:13:13.089Z,11.43
2019-05-19T14:15:43.136Z,11.35
2019-05-19T14:18:13.007Z,10.20
2019-05-19T14:20:42.751Z,10.63
2019-05-19T14:23:12.466Z,13.05
2019-05-19T14:25:42.247Z,10.35
2019-05-19T14:28:12.052Z,10.40
2019-05-19T14:30:41.799Z,9.60
2019-05-19T14:33:11.548Z,10.38
2019-05-19T14:35:41.269Z,8.95
2019-05-19T14:38:10.998Z,10.05
2019-05-19T14:40:40.647Z,9.68
2019-05-19T14:43:10.448Z,10.23
2019-05-19T14:45:40.160Z,8.55
2019-05-19T14:48:09.894Z,8.95
2019-05-19T14:50:39.703Z,8.68
2019-05-19T14:53:09.526Z,9.65
2019-05-19T14:55:41.518Z,9.50
2019-05-19T14:58:11.347Z,10.23
2019-05-19T15:00:41.270Z,9.33
2019-05-19T15:03:11.015Z,9.43
2019-05-19T15:05:40.785Z,9.10
2019-05-19T15:08:10.598Z,10.10
2019-05-19T15:10:40.412Z,10.20
2019-05-19T15:13:10.255Z,10.75
2019-05-19T15:15:40.052Z,10.88
2019-05-19T15:18:09.889Z,10.43
2019-05-19T15:20:39.632Z,10.10
2019-05-19T15:23:09.503Z,10.05
2019-05-19T15:25:41.124Z,8.80
2019-05-19T15:28:12.655Z,10.23
2019-05-19T15:30:42.895Z,11.35
2019-05-19T15:33:13.629Z,10.35
2019-05-19T15:35:43.462Z,12.10
2019-05-19T15:38:16.332Z,10.72
2019-05-19T15:40:46.115Z,8.53
2019-05-19T15:43:15.910Z,9.38
2019-05-19T15:45:48.167Z,8.93
2019-05-19T15:48:17.971Z,9.48
2019-05-19T15:50:47.748Z,10.82
2019-05-19T15:53:17.563Z,11.50
2019-05-19T15:58:41.035Z,8.43
2019-05-19T16:01:15.836Z,10.15
2019-05-19T16:03:46.942Z,8.73
2019-05-19T16:06:18.213Z,9.98
2019-05-19T16:08:49.244Z,9.05
2019-05-19T16:11:19.050Z,8.98
2019-05-19T16:13:53.574Z,11.18
2019-05-19T16:16:23.719Z,8.63
2019-05-19T16:18:56.039Z,9.55
2019-05-19T16:21:25.797Z,8.43
2019-05-19T16:23:56.635Z,8.95
2019-05-19T16:26:26.431Z,11.45
2019-05-19T16:28:56.234Z,11.12
2019-05-19T16:31:46.772Z,9.43
2019-05-19T16:34:18.070Z,10.93
2019-05-19T16:36:49.898Z,12.58
2019-05-19T16:39:19.649Z,12.10
2019-05-19T16:41:49.480Z,13.05
2019-05-19T16:44:19.617Z,15.10
2019-05-19T16:46:49.785Z,13.38
2019-05-19T16:49:19.991Z,14.25
2019-05-19T16:51:56.547Z,13.88
2019-05-19T16:54:35.322Z,13.13
2019-05-19T16:57:05.446Z,12.93
2019-05-19T17:00:10.790Z,13.03
2019-05-19T17:02:44.211Z,11.97
2019-05-19T17:05:24.199Z,12.95
2019-05-19T17:07:56.542Z,12.28
2019-05-19T17:10:26.358Z,14.40
2019-05-19T17:12:56.250Z,14.95
2019-05-19T17:15:26.047Z,13.75
2019-05-19T17:17:55.904Z,13.68
2019-05-19T17:20:25.786Z,13.30
2019-05-19T17:22:55.560Z,13.43
2019-05-19T17:25:25.413Z,12.90
2019-05-19T17:27:55.107Z,14.23
2019-05-19T17:30:24.962Z,13.90
2019-05-19T17:32:54.767Z,13.75
2019-05-19T17:35:26.805Z,13.08
2019-05-19T17:37:56.753Z,16.55
2019-05-19T17:40:26.581Z,13.88
2019-05-19T17:42:56.462Z,13.90
2019-05-19T17:45:26.413Z,14.55
2019-05-19T17:48:09.248Z,13.53
2019-05-19T17:50:33.531Z,14.07
2019-05-19T17:53:04.398Z,13.62
2019-05-19T17:55:35.865Z,14.10
2019-05-19T17:58:05.996Z,14.68
2019-05-19T18:00:40.768Z,13.55
2019-05-19T18:03:10.836Z,13.85
2019-05-19T18:05:40.595Z,13.90
2019-05-19T18:08:10.624Z,14.73
2019-05-19T18:10:40.520Z,14.47
2019-05-19T18:13:10.330Z,20.32
2019-05-19T18:15:40.217Z,14.80
2019-05-19T18:18:10.047Z,16.35
2019-05-19T18:20:39.836Z,15.90
2019-05-19T18:23:09.598Z,14.55
2019-05-19T18:25:39.580Z,15.90
2019-05-19T18:28:09.482Z,14.98
2019-05-19T18:30:40.616Z,17.60
2019-05-19T18:33:10.397Z,14.85
2019-05-19T18:35:40.179Z,14.50
2019-05-19T18:38:10.022Z,14.35
2019-05-19T18:40:39.794Z,15.40
2019-05-19T18:43:09.555Z,14.33
2019-05-19T18:45:39.568Z,15.60
2019-05-19T18:48:09.400Z,14.95
2019-05-19T18:50:39.197Z,14.35
2019-05-19T18:53:09.123Z,16.65
2019-05-19T18:55:38.997Z,15.00
2019-05-19T18:58:08.841Z,14.78
2019-05-19T19:00:39.455Z,15.93
2019-05-19T19:03:09.329Z,15.70
2019-05-19T19:05:39.143Z,16.27
2019-05-19T19:08:10.214Z,17.62
2019-05-19T19:10:40.004Z,16.57
2019-05-19T19:13:09.781Z,17.90
2019-05-19T19:15:39.639Z,17.10
2019-05-19T19:18:09.406Z,15.72
2019-05-19T19:20:39.288Z,14.75
2019-05-19T19:23:09.255Z,15.08
2019-05-19T19:25:39.091Z,14.95
2019-05-19T19:28:30.154Z,14.38
2019-05-19T19:31:22.529Z,14.93
2019-05-19T19:33:52.308Z,16.05
2019-05-19T19:36:22.145Z,15.32
2019-05-19T19:38:55.792Z,15.15
2019-05-19T19:41:27.159Z,17.55
2019-05-19T19:44:02.411Z,15.38
2019-05-19T19:46:42.667Z,18.42
2019-05-19T19:49:21.928Z,19.07
2019-05-19T19:51:56.560Z,15.95
2019-05-19T19:54:29.656Z,16.10
2019-05-19T19:57:01.501Z,15.88
2019-05-19T19:59:31.371Z,16.15
2019-05-19T20:02:01.155Z,15.45
2019-05-19T20:04:30.972Z,16.93
2019-05-19T20:07:00.842Z,14.80
2019-05-19T20:09:30.626Z,19.30
2019-05-19T20:12:00.306Z,15.32
2019-05-19T20:14:30.139Z,14.68
2019-05-19T20:16:59.972Z,16.82
2019-05-19T20:19:40.644Z,17.48
2019-05-19T20:22:12.795Z,18.05
2019-05-19T20:24:46.759Z,20.82
2019-05-19T20:27:17.013Z,18.12
2019-05-19T20:29:50.419Z,17.73
2019-05-19T20:32:27.184Z,15.35
2019-05-19T20:35:05.120Z,14.68
2019-05-19T20:37:36.200Z,14.13
2019-05-19T20:40:07.455Z,14.40
2019-05-19T20:42:42.440Z,11.68
2019-05-19T20:45:24.219Z,11.83
2019-05-19T20:47:57.724Z,10.55
2019-05-19T20:50:31.034Z,10.95
2019-05-19T20:53:04.927Z,11.22
2019-05-19T20:55:42.951Z,11.60
2019-05-19T20:58:17.464Z,11.48
2019-05-19T21:00:50.467Z,10.23
2019-05-19T21:03:23.504Z,9.90
2019-05-19T21:06:06.075Z,10.65
2019-05-19T21:08:42.153Z,9.00
2019-05-19T21:11:35.231Z,9.85
2019-05-19T21:14:04.973Z,10.30
2019-05-19T21:16:35.604Z,9.38
2019-05-19T21:19:05.897Z,8.88
2019-05-19T21:21:35.722Z,8.70
2019-05-19T21:24:07.429Z,8.85
2019-05-19T21:26:42.944Z,10.32
2019-05-19T21:29:14.290Z,8.88
2019-05-19T21:31:44.114Z,9.05
2019-05-19T21:34:14.318Z,8.35
2019-05-19T21:36:44.051Z,9.60
2019-05-19T21:39:21.545Z,9.53
2019-05-19T21:41:51.290Z,9.78
2019-05-19T21:44:24.034Z,9.75
2019-05-19T21:46:56.671Z,9.30
2019-05-19T21:49:29.681Z,9.65
2019-05-19T21:52:03.182Z,9.03
2019-05-19T21:54:40.088Z,9.90
2019-05-19T21:57:15.523Z,10.15
2019-05-19T21:59:52.669Z,10.53
2019-05-19T22:02:26.338Z,9.65
2019-05-19T22:05:01.415Z,9.00
2019-05-19T22:07:56.467Z,9.55
2019-05-19T22:10:31.521Z,9.18
2019-05-19T22:13:12.529Z,9.30
2019-05-19T22:16:11.234Z,9.60
2019-05-19T22:18:32.687Z,8.65
2019-05-19T22:21:06.330Z,9.23
2019-05-19T22:23:43.095Z,10.88
2019-05-19T22:26:18.373Z,11.18
2019-05-19T22:28:55.248Z,14.28
2019-05-19T22:31:42.486Z,11.45
2019-05-19T22:34:16.378Z,13.30
2019-05-19T22:36:49.463Z,12.07
2019-05-19T22:39:25.594Z,10.80
2019-05-19T22:41:57.879Z,14.40
2019-05-19T22:44:33.840Z,12.80
2019-05-19T22:47:07.926Z,14.60
2019-05-19T22:49:42.082Z,13.38
2019-05-19T22:52:14.791Z,15.40
2019-05-19T22:54:48.928Z,14.53
2019-05-19T22:57:25.944Z,17.77
2019-05-19T22:59:56.798Z,16.42
2019-05-19T23:02:33.548Z,15.80
2019-05-19T23:07:58.823Z,14.73
2019-05-19T23:10:34.130Z,14.60
2019-05-19T23:13:13.912Z,16.40
2019-05-19T23:15:47.920Z,18.00
2019-05-19T23:18:27.861Z,15.83
2019-05-19T23:21:01.817Z,16.12
2019-05-19T23:23:36.481Z,17.37
2019-05-19T23:29:00.910Z,15.72
2019-05-19T23:31:33.306Z,18.45
2019-05-19T23:34:06.120Z,17.20
2019-05-19T23:36:46.321Z,16.50
2019-05-19T23:39:23.467Z,16.65
2019-05-19T23:41:56.550Z,15.78
2019-05-19T23:44:31.759Z,18.52
2019-05-19T23:47:09.303Z,16.77
2019-05-19T23:49:41.406Z,17.27
2019-05-19T23:52:17.127Z,17.50
2019-05-19T23:54:46.931Z,15.60
2019-05-19T23:57:18.296Z,15.35
2019-05-19T23:59:51.109Z,15.03
